sensor_id;sensor_type;location;lat;lon;timestamp;P1;durP1;ratioP1;P2;durP2;ratioP2
82526;SDS011;72188;41.974;21.456;2024-02-23T00:01:58;49.55;;;26.17;;
82526;SDS011;72188;41.974;21.456;2024-02-23T00:04:25;48.00;;;26.35;;
82526;SDS011;72188;41.974;21.456;2024-02-23T00:06:51;49.25;;;26.38;;
82526;SDS011;72188;41.974;21.456;2024-02-23T00:09:17;41.05;;;23.95;;
82526;SDS011;72188;41.974;21.456;2024-02-23T00:11:43;46.40;;;24.85;;
82526;SDS011;72188;41.974;21.456;2024-02-23T00:14:10;43.55;;;23.95;;
82526;SDS011;72188;41.974;21.456;2024-02-23T00:16:39;41.70;;;22.58;;
82526;SDS011;72188;41.974;21.456;2024-02-23T00:19:07;51.85;;;25.30;;
82526;SDS011;72188;41.974;21.456;2024-02-23T00:21:34;47.88;;;24.33;;
82526;SDS011;72188;41.974;21.456;2024-02-23T00:24:00;40.35;;;23.73;;
82526;SDS011;72188;41.974;21.456;2024-02-23T00:26:26;48.97;;;25.50;;
82526;SDS011;72188;41.974;21.456;2024-02-23T00:28:55;46.75;;;24.83;;
82526;SDS011;72188;41.974;21.456;2024-02-23T00:31:21;47.35;;;25.25;;
82526;SDS011;72188;41.974;21.456;2024-02-23T00:33:48;42.95;;;24.48;;
82526;SDS011;72188;41.974;21.456;2024-02-23T00:36:14;45.80;;;24.58;;
82526;SDS011;72188;41.974;21.456;2024-02-23T00:38:40;43.08;;;23.45;;
82526;SDS011;72188;41.974;21.456;2024-02-23T00:41:06;47.35;;;24.15;;
82526;SDS011;72188;41.974;21.456;2024-02-23T00:43:39;37.45;;;19.70;;
82526;SDS011;72188;41.974;21.456;2024-02-23T00:46:05;37.80;;;19.67;;
82526;SDS011;72188;41.974;21.456;2024-02-23T00:48:31;35.90;;;19.17;;
82526;SDS011;72188;41.974;21.456;2024-02-23T00:50:57;40.40;;;21.63;;
82526;SDS011;72188;41.974;21.456;2024-02-23T00:53:23;37.35;;;20.58;;
82526;SDS011;72188;41.974;21.456;2024-02-23T00:55:49;44.75;;;21.02;;
82526;SDS011;72188;41.974;21.456;2024-02-23T00:58:15;46.33;;;22.13;;
82526;SDS011;72188;41.974;21.456;2024-02-23T01:00:42;38.35;;;18.45;;
82526;SDS011;72188;41.974;21.456;2024-02-23T01:03:08;44.95;;;20.70;;
82526;SDS011;72188;41.974;21.456;2024-02-23T01:05:34;40.63;;;21.05;;
82526;SDS011;72188;41.974;21.456;2024-02-23T01:08:00;48.40;;;23.58;;
82526;SDS011;72188;41.974;21.456;2024-02-23T01:10:26;40.97;;;19.58;;
82526;SDS011;72188;41.974;21.456;2024-02-23T01:12:52;45.72;;;20.90;;
82526;SDS011;72188;41.974;21.456;2024-02-23T01:15:18;42.13;;;19.60;;
82526;SDS011;72188;41.974;21.456;2024-02-23T01:17:44;38.33;;;19.77;;
82526;SDS011;72188;41.974;21.456;2024-02-23T01:20:10;47.30;;;28.88;;
82526;SDS011;72188;41.974;21.456;2024-02-23T01:22:37;48.08;;;24.95;;
82526;SDS011;72188;41.974;21.456;2024-02-23T01:25:03;41.35;;;22.20;;
82526;SDS011;72188;41.974;21.456;2024-02-23T01:27:29;43.95;;;21.55;;
82526;SDS011;72188;41.974;21.456;2024-02-23T01:29:55;34.55;;;18.10;;
82526;SDS011;72188;41.974;21.456;2024-02-23T01:32:22;48.35;;;21.75;;
82526;SDS011;72188;41.974;21.456;2024-02-23T01:34:48;47.40;;;21.75;;
82526;SDS011;72188;41.974;21.456;2024-02-23T01:37:14;39.28;;;18.90;;
82526;SDS011;72188;41.974;21.456;2024-02-23T01:39:40;38.30;;;19.15;;
82526;SDS011;72188;41.974;21.456;2024-02-23T01:42:06;27.63;;;13.65;;
82526;SDS011;72188;41.974;21.456;2024-02-23T01:44:32;31.13;;;15.07;;
82526;SDS011;72188;41.974;21.456;2024-02-23T01:46:58;31.95;;;16.63;;
82526;SDS011;72188;41.974;21.456;2024-02-23T01:49:24;36.83;;;17.85;;
82526;SDS011;72188;41.974;21.456;2024-02-23T01:51:55;35.50;;;17.73;;
82526;SDS011;72188;41.974;21.456;2024-02-23T01:54:21;36.53;;;17.02;;
82526;SDS011;72188;41.974;21.456;2024-02-23T01:56:48;45.47;;;18.98;;
82526;SDS011;72188;41.974;21.456;2024-02-23T01:59:15;38.63;;;15.95;;
82526;SDS011;72188;41.974;21.456;2024-02-23T02:01:45;38.88;;;18.17;;
82526;SDS011;72188;41.974;21.456;2024-02-23T02:04:11;37.70;;;18.30;;
82526;SDS011;72188;41.974;21.456;2024-02-23T02:06:37;40.83;;;18.95;;
82526;SDS011;72188;41.974;21.456;2024-02-23T02:09:04;44.90;;;24.25;;
82526;SDS011;72188;41.974;21.456;2024-02-23T02:11:30;43.30;;;20.70;;
82526;SDS011;72188;41.974;21.456;2024-02-23T02:13:56;36.65;;;18.60;;
82526;SDS011;72188;41.974;21.456;2024-02-23T02:16:22;34.03;;;17.45;;
82526;SDS011;72188;41.974;21.456;2024-02-23T02:18:48;35.50;;;19.50;;
82526;SDS011;72188;41.974;21.456;2024-02-23T02:21:15;32.50;;;14.00;;
82526;SDS011;72188;41.974;21.456;2024-02-23T02:23:41;34.30;;;18.98;;
82526;SDS011;72188;41.974;21.456;2024-02-23T02:26:07;30.08;;;16.50;;
82526;SDS011;72188;41.974;21.456;2024-02-23T02:28:33;37.08;;;17.85;;
82526;SDS011;72188;41.974;21.456;2024-02-23T02:30:59;27.30;;;16.05;;
82526;SDS011;72188;41.974;21.456;2024-02-23T02:33:25;31.17;;;17.17;;
82526;SDS011;72188;41.974;21.456;2024-02-23T02:35:51;31.42;;;15.48;;
82526;SDS011;72188;41.974;21.456;2024-02-23T02:38:17;39.03;;;18.75;;
82526;SDS011;72188;41.974;21.456;2024-02-23T02:40:43;37.83;;;18.35;;
82526;SDS011;72188;41.974;21.456;2024-02-23T02:43:10;28.67;;;16.30;;
82526;SDS011;72188;41.974;21.456;2024-02-23T02:45:36;34.55;;;17.52;;
82526;SDS011;72188;41.974;21.456;2024-02-23T02:48:02;32.53;;;15.38;;
82526;SDS011;72188;41.974;21.456;2024-02-23T02:50:28;50.97;;;29.33;;
82526;SDS011;72188;41.974;21.456;2024-02-23T02:52:54;42.63;;;19.92;;
82526;SDS011;72188;41.974;21.456;2024-02-23T02:55:20;57.80;;;25.83;;
82526;SDS011;72188;41.974;21.456;2024-02-23T02:57:46;45.60;;;22.65;;
82526;SDS011;72188;41.974;21.456;2024-02-23T03:00:13;42.28;;;20.65;;
82526;SDS011;72188;41.974;21.456;2024-02-23T03:02:40;48.22;;;20.65;;
82526;SDS011;72188;41.974;21.456;2024-02-23T03:05:06;37.03;;;20.70;;
82526;SDS011;72188;41.974;21.456;2024-02-23T03:07:33;42.28;;;18.33;;
82526;SDS011;72188;41.974;21.456;2024-02-23T03:09:59;44.53;;;22.48;;
82526;SDS011;72188;41.974;21.456;2024-02-23T03:12:25;53.20;;;22.08;;
82526;SDS011;72188;41.974;21.456;2024-02-23T03:14:51;60.58;;;28.48;;
82526;SDS011;72188;41.974;21.456;2024-02-23T03:17:17;60.00;;;27.02;;
82526;SDS011;72188;41.974;21.456;2024-02-23T03:19:43;57.58;;;27.27;;
82526;SDS011;72188;41.974;21.456;2024-02-23T03:22:09;56.92;;;27.48;;
82526;SDS011;72188;41.974;21.456;2024-02-23T03:24:35;51.97;;;23.50;;
82526;SDS011;72188;41.974;21.456;2024-02-23T03:27:01;61.13;;;26.60;;
82526;SDS011;72188;41.974;21.456;2024-02-23T03:29:27;43.45;;;22.67;;
82526;SDS011;72188;41.974;21.456;2024-02-23T03:31:54;41.22;;;21.45;;
82526;SDS011;72188;41.974;21.456;2024-02-23T03:34:20;46.30;;;20.42;;
82526;SDS011;72188;41.974;21.456;2024-02-23T03:36:47;48.40;;;22.25;;
82526;SDS011;72188;41.974;21.456;2024-02-23T03:39:13;44.30;;;21.30;;
82526;SDS011;72188;41.974;21.456;2024-02-23T03:41:39;46.65;;;20.60;;
82526;SDS011;72188;41.974;21.456;2024-02-23T03:44:06;40.03;;;19.67;;
82526;SDS011;72188;41.974;21.456;2024-02-23T03:46:33;40.88;;;20.02;;
82526;SDS011;72188;41.974;21.456;2024-02-23T03:48:59;43.42;;;20.75;;
82526;SDS011;72188;41.974;21.456;2024-02-23T03:51:26;34.30;;;18.92;;
82526;SDS011;72188;41.974;21.456;2024-02-23T03:53:52;45.00;;;18.77;;
82526;SDS011;72188;41.974;21.456;2024-02-23T03:56:18;29.33;;;17.35;;
82526;SDS011;72188;41.974;21.456;2024-02-23T03:58:44;37.50;;;20.45;;
82526;SDS011;72188;41.974;21.456;2024-02-23T04:01:10;33.40;;;16.08;;
82526;SDS011;72188;41.974;21.456;2024-02-23T04:03:36;29.50;;;14.43;;
82526;SDS011;72188;41.974;21.456;2024-02-23T04:06:02;27.00;;;15.27;;
82526;SDS011;72188;41.974;21.456;2024-02-23T04:08:28;33.35;;;17.65;;
82526;SDS011;72188;41.974;21.456;2024-02-23T04:10:55;32.92;;;16.73;;
82526;SDS011;72188;41.974;21.456;2024-02-23T04:13:21;31.60;;;16.83;;
82526;SDS011;72188;41.974;21.456;2024-02-23T04:15:48;38.42;;;17.33;;
82526;SDS011;72188;41.974;21.456;2024-02-23T04:18:14;32.15;;;16.02;;
82526;SDS011;72188;41.974;21.456;2024-02-23T04:20:40;34.42;;;18.30;;
82526;SDS011;72188;41.974;21.456;2024-02-23T04:23:06;36.85;;;18.00;;
82526;SDS011;72188;41.974;21.456;2024-02-23T04:25:32;38.63;;;17.77;;
82526;SDS011;72188;41.974;21.456;2024-02-23T04:27:58;9.20;;;6.40;;
82526;SDS011;72188;41.974;21.456;2024-02-23T04:30:24;36.58;;;20.35;;
82526;SDS011;72188;41.974;21.456;2024-02-23T04:32:50;34.28;;;16.45;;
82526;SDS011;72188;41.974;21.456;2024-02-23T04:35:16;38.85;;;19.27;;
82526;SDS011;72188;41.974;21.456;2024-02-23T04:37:43;35.97;;;19.00;;
82526;SDS011;72188;41.974;21.456;2024-02-23T04:40:10;42.90;;;21.70;;
82526;SDS011;72188;41.974;21.456;2024-02-23T04:42:37;40.58;;;20.85;;
82526;SDS011;72188;41.974;21.456;2024-02-23T04:45:04;42.83;;;22.80;;
82526;SDS011;72188;41.974;21.456;2024-02-23T04:47:30;43.75;;;19.98;;
82526;SDS011;72188;41.974;21.456;2024-02-23T04:49:57;37.75;;;20.23;;
82526;SDS011;72188;41.974;21.456;2024-02-23T04:52:24;35.50;;;19.45;;
82526;SDS011;72188;41.974;21.456;2024-02-23T04:54:50;37.72;;;20.75;;
82526;SDS011;72188;41.974;21.456;2024-02-23T04:57:16;53.60;;;21.55;;
82526;SDS011;72188;41.974;21.456;2024-02-23T04:59:42;39.13;;;18.33;;
82526;SDS011;72188;41.974;21.456;2024-02-23T05:02:08;36.95;;;20.00;;
82526;SDS011;72188;41.974;21.456;2024-02-23T05:04:34;40.50;;;19.73;;
82526;SDS011;72188;41.974;21.456;2024-02-23T05:07:00;39.35;;;19.73;;
82526;SDS011;72188;41.974;21.456;2024-02-23T05:09:27;36.17;;;20.85;;
82526;SDS011;72188;41.974;21.456;2024-02-23T05:11:53;47.20;;;19.60;;
82526;SDS011;72188;41.974;21.456;2024-02-23T05:14:20;37.85;;;18.95;;
82526;SDS011;72188;41.974;21.456;2024-02-23T05:16:46;40.85;;;19.83;;
82526;SDS011;72188;41.974;21.456;2024-02-23T05:19:12;34.65;;;18.70;;
82526;SDS011;72188;41.974;21.456;2024-02-23T05:21:38;25.67;;;13.73;;
82526;SDS011;72188;41.974;21.456;2024-02-23T05:24:04;45.67;;;21.63;;
82526;SDS011;72188;41.974;21.456;2024-02-23T05:26:31;33.67;;;16.95;;
82526;SDS011;72188;41.974;21.456;2024-02-23T05:28:57;42.78;;;21.58;;
82526;SDS011;72188;41.974;21.456;2024-02-23T05:34:08;39.50;;;19.77;;
82526;SDS011;72188;41.974;21.456;2024-02-23T05:36:35;39.90;;;21.90;;
82526;SDS011;72188;41.974;21.456;2024-02-23T05:39:01;26.23;;;15.65;;
82526;SDS011;72188;41.974;21.456;2024-02-23T05:41:27;40.47;;;21.67;;
82526;SDS011;72188;41.974;21.456;2024-02-23T05:43:53;44.63;;;23.52;;
82526;SDS011;72188;41.974;21.456;2024-02-23T05:46:19;49.05;;;23.23;;
82526;SDS011;72188;41.974;21.456;2024-02-23T05:48:46;41.35;;;22.75;;
82526;SDS011;72188;41.974;21.456;2024-02-23T05:51:12;53.97;;;22.45;;
82526;SDS011;72188;41.974;21.456;2024-02-23T05:53:38;46.05;;;22.98;;
82526;SDS011;72188;41.974;21.456;2024-02-23T05:56:05;32.83;;;19.92;;
82526;SDS011;72188;41.974;21.456;2024-02-23T05:58:34;47.85;;;22.45;;
82526;SDS011;72188;41.974;21.456;2024-02-23T06:01:01;51.28;;;23.08;;
82526;SDS011;72188;41.974;21.456;2024-02-23T06:03:27;39.40;;;20.58;;
82526;SDS011;72188;41.974;21.456;2024-02-23T06:05:53;45.63;;;22.65;;
82526;SDS011;72188;41.974;21.456;2024-02-23T06:08:19;49.58;;;24.90;;
82526;SDS011;72188;41.974;21.456;2024-02-23T06:10:45;62.30;;;30.10;;
82526;SDS011;72188;41.974;21.456;2024-02-23T06:13:11;49.85;;;27.42;;
82526;SDS011;72188;41.974;21.456;2024-02-23T06:15:38;46.20;;;22.95;;
82526;SDS011;72188;41.974;21.456;2024-02-23T06:18:04;44.40;;;21.45;;
82526;SDS011;72188;41.974;21.456;2024-02-23T06:20:30;40.28;;;23.40;;
82526;SDS011;72188;41.974;21.456;2024-02-23T06:22:57;41.33;;;21.85;;
82526;SDS011;72188;41.974;21.456;2024-02-23T06:25:23;52.00;;;26.15;;
82526;SDS011;72188;41.974;21.456;2024-02-23T06:27:49;47.28;;;26.92;;
82526;SDS011;72188;41.974;21.456;2024-02-23T06:30:15;56.60;;;30.90;;
82526;SDS011;72188;41.974;21.456;2024-02-23T06:32:41;55.40;;;27.02;;
82526;SDS011;72188;41.974;21.456;2024-02-23T06:35:07;46.97;;;26.40;;
82526;SDS011;72188;41.974;21.456;2024-02-23T06:37:34;47.97;;;27.17;;
82526;SDS011;72188;41.974;21.456;2024-02-23T06:40:00;50.00;;;26.13;;
82526;SDS011;72188;41.974;21.456;2024-02-23T06:42:26;55.25;;;30.05;;
82526;SDS011;72188;41.974;21.456;2024-02-23T06:44:52;48.85;;;28.38;;
82526;SDS011;72188;41.974;21.456;2024-02-23T06:47:18;49.70;;;27.60;;
82526;SDS011;72188;41.974;21.456;2024-02-23T06:49:45;47.35;;;26.77;;
82526;SDS011;72188;41.974;21.456;2024-02-23T06:52:11;43.03;;;26.15;;
82526;SDS011;72188;41.974;21.456;2024-02-23T06:54:37;46.63;;;25.88;;
82526;SDS011;72188;41.974;21.456;2024-02-23T06:57:04;36.47;;;24.88;;
82526;SDS011;72188;41.974;21.456;2024-02-23T06:59:30;45.85;;;26.20;;
82526;SDS011;72188;41.974;21.456;2024-02-23T07:01:57;42.55;;;26.17;;
82526;SDS011;72188;41.974;21.456;2024-02-23T07:04:23;27.45;;;15.63;;
82526;SDS011;72188;41.974;21.456;2024-02-23T07:06:50;34.97;;;22.98;;
82526;SDS011;72188;41.974;21.456;2024-02-23T07:09:16;39.05;;;26.38;;
82526;SDS011;72188;41.974;21.456;2024-02-23T07:11:42;44.70;;;25.55;;
82526;SDS011;72188;41.974;21.456;2024-02-23T07:14:10;40.75;;;24.15;;
82526;SDS011;72188;41.974;21.456;2024-02-23T07:16:39;38.42;;;23.20;;
82526;SDS011;72188;41.974;21.456;2024-02-23T07:19:05;39.00;;;23.85;;
82526;SDS011;72188;41.974;21.456;2024-02-23T07:21:32;48.55;;;28.67;;
82526;SDS011;72188;41.974;21.456;2024-02-23T07:23:58;45.13;;;26.15;;
82526;SDS011;72188;41.974;21.456;2024-02-23T07:26:24;39.47;;;26.02;;
82526;SDS011;72188;41.974;21.456;2024-02-23T07:28:53;38.88;;;23.17;;
82526;SDS011;72188;41.974;21.456;2024-02-23T07:33:46;33.10;;;20.33;;
82526;SDS011;72188;41.974;21.456;2024-02-23T07:36:15;41.22;;;22.05;;
82526;SDS011;72188;41.974;21.456;2024-02-23T07:38:41;27.70;;;18.50;;
82526;SDS011;72188;41.974;21.456;2024-02-23T07:41:09;27.48;;;16.42;;
82526;SDS011;72188;41.974;21.456;2024-02-23T07:43:35;26.83;;;15.75;;
82526;SDS011;72188;41.974;21.456;2024-02-23T07:46:01;30.05;;;17.75;;
82526;SDS011;72188;41.974;21.456;2024-02-23T07:48:29;26.25;;;16.50;;
82526;SDS011;72188;41.974;21.456;2024-02-23T07:50:55;28.98;;;16.85;;
82526;SDS011;72188;41.974;21.456;2024-02-23T07:53:21;27.17;;;15.82;;
82526;SDS011;72188;41.974;21.456;2024-02-23T07:55:49;23.55;;;14.73;;
82526;SDS011;72188;41.974;21.456;2024-02-23T07:58:15;32.47;;;16.42;;
82526;SDS011;72188;41.974;21.456;2024-02-23T08:00:41;24.90;;;15.75;;
82526;SDS011;72188;41.974;21.456;2024-02-23T08:03:07;25.23;;;15.60;;
82526;SDS011;72188;41.974;21.456;2024-02-23T08:05:33;12.23;;;8.23;;
82526;SDS011;72188;41.974;21.456;2024-02-23T08:08:00;24.63;;;14.80;;
82526;SDS011;72188;41.974;21.456;2024-02-23T08:10:26;27.63;;;15.20;;
82526;SDS011;72188;41.974;21.456;2024-02-23T08:12:52;28.52;;;14.75;;
82526;SDS011;72188;41.974;21.456;2024-02-23T08:15:18;26.50;;;15.32;;
82526;SDS011;72188;41.974;21.456;2024-02-23T08:17:44;21.20;;;14.57;;
82526;SDS011;72188;41.974;21.456;2024-02-23T08:20:14;25.05;;;15.77;;
82526;SDS011;72188;41.974;21.456;2024-02-23T08:22:40;20.73;;;15.35;;
82526;SDS011;72188;41.974;21.456;2024-02-23T08:25:06;25.48;;;17.40;;
82526;SDS011;72188;41.974;21.456;2024-02-23T08:27:34;26.20;;;15.52;;
82526;SDS011;72188;41.974;21.456;2024-02-23T08:30:00;23.38;;;13.02;;
82526;SDS011;72188;41.974;21.456;2024-02-23T08:32:26;25.15;;;15.05;;
82526;SDS011;72188;41.974;21.456;2024-02-23T08:34:52;38.88;;;24.60;;
82526;SDS011;72188;41.974;21.456;2024-02-23T08:37:24;23.88;;;15.75;;
82526;SDS011;72188;41.974;21.456;2024-02-23T08:39:50;24.98;;;14.85;;
82526;SDS011;72188;41.974;21.456;2024-02-23T08:42:16;21.75;;;14.32;;
82526;SDS011;72188;41.974;21.456;2024-02-23T08:44:42;71.53;;;45.47;;
82526;SDS011;72188;41.974;21.456;2024-02-23T08:47:08;32.47;;;19.25;;
82526;SDS011;72188;41.974;21.456;2024-02-23T08:49:35;23.35;;;14.55;;
82526;SDS011;72188;41.974;21.456;2024-02-23T08:52:01;20.67;;;13.10;;
82526;SDS011;72188;41.974;21.456;2024-02-23T08:54:27;43.55;;;16.50;;
82526;SDS011;72188;41.974;21.456;2024-02-23T08:56:53;30.48;;;13.88;;
82526;SDS011;72188;41.974;21.456;2024-02-23T08:59:19;21.23;;;14.10;;
82526;SDS011;72188;41.974;21.456;2024-02-23T09:01:46;14.93;;;8.60;;
82526;SDS011;72188;41.974;21.456;2024-02-23T09:04:12;21.58;;;12.98;;
82526;SDS011;72188;41.974;21.456;2024-02-23T09:06:38;18.13;;;11.20;;
82526;SDS011;72188;41.974;21.456;2024-02-23T09:09:05;23.80;;;15.00;;
82526;SDS011;72188;41.974;21.456;2024-02-23T09:11:31;44.45;;;27.45;;
82526;SDS011;72188;41.974;21.456;2024-02-23T09:13:57;34.97;;;19.33;;
82526;SDS011;72188;41.974;21.456;2024-02-23T09:16:23;38.78;;;16.25;;
82526;SDS011;72188;41.974;21.456;2024-02-23T09:18:50;27.90;;;16.80;;
82526;SDS011;72188;41.974;21.456;2024-02-23T09:21:16;24.17;;;14.82;;
82526;SDS011;72188;41.974;21.456;2024-02-23T09:23:42;24.33;;;14.75;;
82526;SDS011;72188;41.974;21.456;2024-02-23T09:26:08;23.15;;;13.30;;
82526;SDS011;72188;41.974;21.456;2024-02-23T09:28:37;24.58;;;14.15;;
82526;SDS011;72188;41.974;21.456;2024-02-23T09:31:06;31.58;;;19.80;;
82526;SDS011;72188;41.974;21.456;2024-02-23T09:35:59;24.55;;;12.18;;
82526;SDS011;72188;41.974;21.456;2024-02-23T09:38:26;24.10;;;13.18;;
82526;SDS011;72188;41.974;21.456;2024-02-23T09:40:53;24.52;;;13.82;;
82526;SDS011;72188;41.974;21.456;2024-02-23T09:43:22;27.10;;;13.98;;
82526;SDS011;72188;41.974;21.456;2024-02-23T09:45:50;28.50;;;17.02;;
82526;SDS011;72188;41.974;21.456;2024-02-23T09:48:18;22.25;;;13.07;;
82526;SDS011;72188;41.974;21.456;2024-02-23T09:50:45;23.23;;;14.45;;
82526;SDS011;72188;41.974;21.456;2024-02-23T09:53:12;22.10;;;13.82;;
82526;SDS011;72188;41.974;21.456;2024-02-23T09:55:40;23.55;;;15.68;;
82526;SDS011;72188;41.974;21.456;2024-02-23T09:58:07;24.15;;;13.82;;
82526;SDS011;72188;41.974;21.456;2024-02-23T10:00:35;32.13;;;16.13;;
82526;SDS011;72188;41.974;21.456;2024-02-23T10:03:04;23.55;;;14.98;;
82526;SDS011;72188;41.974;21.456;2024-02-23T10:05:31;23.85;;;14.57;;
82526;SDS011;72188;41.974;21.456;2024-02-23T10:07:57;19.10;;;11.98;;
82526;SDS011;72188;41.974;21.456;2024-02-23T10:10:34;22.30;;;14.82;;
82526;SDS011;72188;41.974;21.456;2024-02-23T10:13:00;21.27;;;12.57;;
82526;SDS011;72188;41.974;21.456;2024-02-23T10:15:30;20.50;;;12.73;;
82526;SDS011;72188;41.974;21.456;2024-02-23T10:17:56;23.08;;;13.50;;
82526;SDS011;72188;41.974;21.456;2024-02-23T10:20:22;20.67;;;13.20;;
82526;SDS011;72188;41.974;21.456;2024-02-23T10:22:49;17.15;;;11.98;;
82526;SDS011;72188;41.974;21.456;2024-02-23T10:25:15;21.75;;;14.00;;
82526;SDS011;72188;41.974;21.456;2024-02-23T10:27:42;17.60;;;12.38;;
82526;SDS011;72188;41.974;21.456;2024-02-23T10:30:08;20.17;;;12.02;;
82526;SDS011;72188;41.974;21.456;2024-02-23T10:32:39;18.30;;;11.65;;
82526;SDS011;72188;41.974;21.456;2024-02-23T10:35:07;19.85;;;12.15;;
82526;SDS011;72188;41.974;21.456;2024-02-23T10:37:35;18.95;;;12.40;;
82526;SDS011;72188;41.974;21.456;2024-02-23T10:42:30;16.45;;;11.27;;
82526;SDS011;72188;41.974;21.456;2024-02-23T10:45:00;16.67;;;10.98;;
82526;SDS011;72188;41.974;21.456;2024-02-23T10:47:30;49.08;;;28.55;;
82526;SDS011;72188;41.974;21.456;2024-02-23T10:50:00;15.35;;;9.85;;
82526;SDS011;72188;41.974;21.456;2024-02-23T10:52:27;38.58;;;24.48;;
82526;SDS011;72188;41.974;21.456;2024-02-23T10:54:54;21.83;;;13.63;;
82526;SDS011;72188;41.974;21.456;2024-02-23T10:57:21;22.73;;;13.35;;
82526;SDS011;72188;41.974;21.456;2024-02-23T10:59:47;23.05;;;12.38;;
82526;SDS011;72188;41.974;21.456;2024-02-23T11:02:17;15.40;;;9.15;;
82526;SDS011;72188;41.974;21.456;2024-02-23T11:04:48;16.33;;;10.77;;
82526;SDS011;72188;41.974;21.456;2024-02-23T11:07:15;20.55;;;11.68;;
82526;SDS011;72188;41.974;21.456;2024-02-23T11:09:42;16.98;;;11.77;;
82526;SDS011;72188;41.974;21.456;2024-02-23T11:12:08;17.17;;;11.10;;
82526;SDS011;72188;41.974;21.456;2024-02-23T11:14:37;19.15;;;11.20;;
82526;SDS011;72188;41.974;21.456;2024-02-23T11:17:19;14.52;;;8.90;;
82526;SDS011;72188;41.974;21.456;2024-02-23T11:19:48;11.73;;;7.63;;
82526;SDS011;72188;41.974;21.456;2024-02-23T11:22:15;17.20;;;9.23;;
82526;SDS011;72188;41.974;21.456;2024-02-23T11:24:49;14.77;;;7.97;;
82526;SDS011;72188;41.974;21.456;2024-02-23T11:27:15;15.57;;;9.35;;
82526;SDS011;72188;41.974;21.456;2024-02-23T11:29:45;13.20;;;8.23;;
82526;SDS011;72188;41.974;21.456;2024-02-23T11:32:15;15.80;;;9.10;;
82526;SDS011;72188;41.974;21.456;2024-02-23T11:35:03;13.63;;;7.53;;
82526;SDS011;72188;41.974;21.456;2024-02-23T11:37:30;16.77;;;9.85;;
82526;SDS011;72188;41.974;21.456;2024-02-23T11:39:56;15.15;;;8.65;;
82526;SDS011;72188;41.974;21.456;2024-02-23T11:42:23;9.75;;;6.55;;
82526;SDS011;72188;41.974;21.456;2024-02-23T11:44:50;16.27;;;10.35;;
82526;SDS011;72188;41.974;21.456;2024-02-23T11:47:19;11.20;;;7.28;;
82526;SDS011;72188;41.974;21.456;2024-02-23T11:49:45;14.77;;;9.38;;
82526;SDS011;72188;41.974;21.456;2024-02-23T11:52:11;20.23;;;10.23;;
82526;SDS011;72188;41.974;21.456;2024-02-23T11:54:38;13.73;;;9.13;;
82526;SDS011;72188;41.974;21.456;2024-02-23T11:57:05;12.02;;;7.50;;
82526;SDS011;72188;41.974;21.456;2024-02-23T11:59:32;11.77;;;8.77;;
82526;SDS011;72188;41.974;21.456;2024-02-23T12:01:58;15.90;;;8.98;;
82526;SDS011;72188;41.974;21.456;2024-02-23T12:04:26;12.57;;;7.50;;
82526;SDS011;72188;41.974;21.456;2024-02-23T12:06:54;17.17;;;7.43;;
82526;SDS011;72188;41.974;21.456;2024-02-23T12:09:20;20.00;;;8.50;;
82526;SDS011;72188;41.974;21.456;2024-02-23T12:11:46;11.98;;;7.13;;
82526;SDS011;72188;41.974;21.456;2024-02-23T12:14:13;11.32;;;7.30;;
82526;SDS011;72188;41.974;21.456;2024-02-23T12:16:39;11.35;;;6.60;;
82526;SDS011;72188;41.974;21.456;2024-02-23T12:19:07;11.88;;;7.50;;
82526;SDS011;72188;41.974;21.456;2024-02-23T12:21:34;11.07;;;6.50;;
82526;SDS011;72188;41.974;21.456;2024-02-23T12:24:03;11.80;;;6.38;;
82526;SDS011;72188;41.974;21.456;2024-02-23T12:26:29;47.17;;;11.75;;
82526;SDS011;72188;41.974;21.456;2024-02-23T12:29:00;14.52;;;6.57;;
82526;SDS011;72188;41.974;21.456;2024-02-23T12:31:27;80.40;;;12.38;;
82526;SDS011;72188;41.974;21.456;2024-02-23T12:33:54;21.20;;;7.75;;
82526;SDS011;72188;41.974;21.456;2024-02-23T12:36:20;13.07;;;6.30;;
82526;SDS011;72188;41.974;21.456;2024-02-23T12:38:46;11.82;;;6.35;;
82526;SDS011;72188;41.974;21.456;2024-02-23T12:41:12;13.43;;;6.97;;
82526;SDS011;72188;41.974;21.456;2024-02-23T12:43:38;10.38;;;6.35;;
82526;SDS011;72188;41.974;21.456;2024-02-23T12:46:04;13.30;;;6.63;;
82526;SDS011;72188;41.974;21.456;2024-02-23T12:48:31;9.07;;;5.47;;
82526;SDS011;72188;41.974;21.456;2024-02-23T12:50:57;44.97;;;22.00;;
82526;SDS011;72188;41.974;21.456;2024-02-23T12:53:34;18.35;;;11.52;;
82526;SDS011;72188;41.974;21.456;2024-02-23T12:56:03;15.18;;;8.52;;
82526;SDS011;72188;41.974;21.456;2024-02-23T13:00:56;32.95;;;21.10;;
82526;SDS011;72188;41.974;21.456;2024-02-23T13:03:23;14.13;;;8.40;;
82526;SDS011;72188;41.974;21.456;2024-02-23T13:05:49;9.32;;;6.07;;
82526;SDS011;72188;41.974;21.456;2024-02-23T13:08:15;10.30;;;5.70;;
82526;SDS011;72188;41.974;21.456;2024-02-23T13:10:42;11.07;;;6.38;;
82526;SDS011;72188;41.974;21.456;2024-02-23T13:13:09;13.30;;;8.45;;
82526;SDS011;72188;41.974;21.456;2024-02-23T13:15:40;13.52;;;6.85;;
82526;SDS011;72188;41.974;21.456;2024-02-23T13:18:06;11.73;;;6.80;;
82526;SDS011;72188;41.974;21.456;2024-02-23T13:20:33;13.48;;;7.38;;
82526;SDS011;72188;41.974;21.456;2024-02-23T13:22:59;13.63;;;6.82;;
82526;SDS011;72188;41.974;21.456;2024-02-23T13:25:25;11.35;;;6.70;;
82526;SDS011;72188;41.974;21.456;2024-02-23T13:27:51;10.30;;;6.53;;
82526;SDS011;72188;41.974;21.456;2024-02-23T13:30:17;12.15;;;6.53;;
82526;SDS011;72188;41.974;21.456;2024-02-23T13:32:44;10.73;;;6.25;;
82526;SDS011;72188;41.974;21.456;2024-02-23T13:35:10;15.93;;;9.48;;
82526;SDS011;72188;41.974;21.456;2024-02-23T13:37:36;8.32;;;5.47;;
82526;SDS011;72188;41.974;21.456;2024-02-23T13:40:02;15.60;;;8.07;;
82526;SDS011;72188;41.974;21.456;2024-02-23T13:42:30;16.30;;;7.53;;
82526;SDS011;72188;41.974;21.456;2024-02-23T13:45:00;16.23;;;7.70;;
82526;SDS011;72188;41.974;21.456;2024-02-23T13:47:26;18.52;;;7.95;;
82526;SDS011;72188;41.974;21.456;2024-02-23T13:49:52;21.85;;;13.98;;
82526;SDS011;72188;41.974;21.456;2024-02-23T13:52:20;11.50;;;7.10;;
82526;SDS011;72188;41.974;21.456;2024-02-23T13:54:49;7.38;;;4.60;;
82526;SDS011;72188;41.974;21.456;2024-02-23T13:57:15;12.70;;;6.00;;
82526;SDS011;72188;41.974;21.456;2024-02-23T13:59:41;7.93;;;5.50;;
82526;SDS011;72188;41.974;21.456;2024-02-23T14:02:07;6.93;;;4.32;;
82526;SDS011;72188;41.974;21.456;2024-02-23T14:04:33;8.52;;;5.38;;
82526;SDS011;72188;41.974;21.456;2024-02-23T14:07:00;8.60;;;5.55;;
82526;SDS011;72188;41.974;21.456;2024-02-23T14:09:26;12.95;;;5.57;;
82526;SDS011;72188;41.974;21.456;2024-02-23T14:11:52;11.25;;;6.20;;
82526;SDS011;72188;41.974;21.456;2024-02-23T14:14:19;12.45;;;6.10;;
82526;SDS011;72188;41.974;21.456;2024-02-23T14:16:46;9.73;;;5.43;;
82526;SDS011;72188;41.974;21.456;2024-02-23T14:19:12;9.95;;;5.72;;
82526;SDS011;72188;41.974;21.456;2024-02-23T14:21:38;13.00;;;6.28;;